London, WV

4:45 PM EST on February 14, 2016 (GMT -0500)
KWVGLENF2 | | Change Station
CLOSE
Current Station
Personal Weather Station
Location: Glen Ferris, WV
Elevation: 676 ft
Nearby Weather Stations
Active Advisory: Winter Weather Advisory Active Notice: Record Report

Elev 676 ft 38.15 °N, 81.22 °W | Updated 13 minutes ago

Overcast
Overcast
28.3 °F
Feels Like 22 °F
N
6.0
Wind Variable Wind from SSE
Gusts 8.0 mph

Today
High -- | Low -- °F
--% Chance of Precip.
Yesterday
High -- | Low -- °F
Precip. -- in
Pressure 30.31 in
Visibility 10.0 miles
Clouds Mostly Cloudy 5500 ft
Overcast 10000 ft
Windchill 22 °F
Dew Point 8 °F
Humidity 41%
Rainfall 0.00 in
Snow Depth Not available.
7:17 AM 6:02 PM
Waxing Crescent, 45% visible
METAR KCRW 142054Z 09006KT 10SM BKN055 OVC100 M04/M17 A3026 RMK AO2 SLP264 T10441172 58036
Pressure 30.31 in
Visibility 10.0 miles
Clouds Mostly Cloudy 5500 ft
Overcast 10000 ft
Windchill 22 °F
Dew Point 8 °F
Humidity 41%
Rainfall 0.00 in
Snow Depth Not available.
7:17 AM 6:02 PM
Waxing Crescent, 45% visible
METAR KCRW 142054Z 09006KT 10SM BKN055 OVC100 M04/M17 A3026 RMK AO2 SLP264 T10441172 58036

10-Day Weather Forecast

Almanac

Astronomy

Feb. 14, 2016 Rise Set
Actual Time
Civil Twilight
Nautical Twilight
Astronomical Twilight
Moon
Length of Visible Light
Length of Day
Tomorrow will be .
, % of the Moon is Illuminated

Today's Extremes

State Highs State Lows

Community

WunderPhotos

Upload Photos

1,892,890 photos uploaded!

WunderBlog® & News

Nearby

Air Quality

  Air Quality AQ Index Pollutant
Not available.

Snow Depth

Station Depth Elevation

Earthquake Activity

City Distance Mag. Time & Date
Minimum magnitude displayed is 2.5.

Coastal Water Temperatures

Place Temperature

Stations

Nearby Weather Stations

Station Location Temp. Windchill Dew Point Humidity Wind Precip. Elev Updated Type
                   

Watches & Warnings

Winter Weather Advisory
Issued: 3:37 PM EST Feb. 14, 2016 – National Weather Service

... Winter Weather Advisory remains in effect until 1 PM EST
Monday...

* hazard... snow. Transitioning to rain during the day on Monday

* snow accumulations... 2 to 4 inches of snow.

* Temperatures... steady or slowly rising through Monday.

* Impacts... untreated roads will be come snow covered... creating
hazardous travel conditions.

Precautionary/preparedness actions...

A Winter Weather Advisory for snow means that periods of snow
will cause primarily travel difficulties. Be prepared for snow
covered roads and limited visibilities... and use caution while
driving.